createdAt,value
2023-01-05T00:01:45.895Z,70.61
2023-01-05T00:04:13.310Z,70.58
2023-01-05T00:06:41.114Z,70.46
2023-01-05T00:09:12.013Z,70.45
2023-01-05T00:11:57.176Z,70.51
2023-01-05T00:14:46.677Z,70.52
2023-01-05T00:17:43.084Z,70.59
2023-01-05T00:20:37.783Z,70.49
2023-01-05T00:23:05.745Z,70.57
2023-01-05T00:25:37.437Z,70.55
2023-01-05T00:28:04.833Z,70.69
2023-01-05T00:30:40.005Z,70.37
2023-01-05T00:33:19.179Z,70.45
2023-01-05T00:35:45.960Z,70.60
2023-01-05T00:38:12.775Z,70.48
2023-01-05T00:40:39.821Z,70.42
2023-01-05T00:43:06.851Z,70.39
2023-01-05T00:45:33.754Z,70.32
2023-01-05T00:48:00.583Z,70.35
2023-01-05T00:50:27.784Z,70.32
2023-01-05T00:52:54.566Z,70.33
2023-01-05T00:55:21.392Z,70.49
2023-01-05T00:57:48.190Z,70.23
2023-01-05T01:00:18.418Z,70.29
2023-01-05T01:02:45.297Z,70.40
2023-01-05T01:05:12.521Z,70.41
2023-01-05T01:07:39.366Z,70.50
2023-01-05T01:10:07.521Z,70.15
2023-01-05T01:12:34.447Z,70.53
2023-01-05T01:15:01.230Z,70.39
2023-01-05T01:17:28.114Z,70.53
2023-01-05T01:19:54.921Z,70.74
2023-01-05T01:22:21.695Z,70.70
2023-01-05T01:24:48.466Z,70.62
2023-01-05T01:27:15.480Z,70.83
2023-01-05T01:29:42.257Z,70.71
2023-01-05T01:32:09.042Z,70.98
2023-01-05T01:34:35.974Z,70.73
2023-01-05T01:39:28.504Z,70.88
2023-01-05T01:41:55.287Z,70.28
2023-01-05T01:44:56.089Z,70.54
2023-01-05T01:47:33.334Z,70.86
2023-01-05T01:50:31.819Z,70.86
2023-01-05T01:53:12.209Z,70.94
2023-01-05T01:55:40.120Z,70.65
2023-01-05T01:58:11.281Z,70.58
2023-01-05T02:00:40.281Z,70.64
2023-01-05T02:03:07.151Z,70.53
2023-01-05T02:05:37.115Z,70.69
2023-01-05T02:08:10.890Z,70.58
2023-01-05T02:11:21.644Z,70.65
2023-01-05T02:13:48.265Z,70.93
2023-01-05T02:16:23.112Z,70.75
2023-01-05T02:19:21.977Z,70.84
2023-01-05T02:22:18.639Z,70.94
2023-01-05T02:25:29.342Z,71.08
2023-01-05T02:28:13.958Z,70.95
2023-01-05T02:30:59.722Z,71.43
2023-01-05T02:33:32.901Z,71.20
2023-01-05T02:36:35.729Z,71.29
2023-01-05T02:39:15.498Z,71.18
2023-01-05T02:42:04.018Z,71.04
2023-01-05T02:44:33.558Z,70.98
2023-01-05T02:47:07.013Z,70.97
2023-01-05T02:49:40.158Z,70.75
2023-01-05T02:52:10.008Z,70.83
2023-01-05T02:54:48.015Z,70.84
2023-01-05T02:57:46.148Z,70.97
2023-01-05T03:00:40.364Z,70.79
2023-01-05T03:03:24.240Z,70.78
2023-01-05T03:06:06.716Z,70.93
2023-01-05T03:08:40.995Z,70.77
2023-01-05T03:11:27.881Z,71.06
2023-01-05T03:14:05.407Z,71.04
2023-01-05T03:16:37.774Z,70.98
2023-01-05T03:19:31.059Z,70.75
2023-01-05T03:22:18.365Z,70.95
2023-01-05T03:25:04.069Z,70.99
2023-01-05T03:27:50.818Z,70.58
2023-01-05T03:30:36.663Z,70.60
2023-01-05T03:33:48.841Z,70.63
2023-01-05T03:36:18.590Z,70.74
2023-01-05T03:38:47.279Z,70.64
2023-01-05T03:41:16.406Z,70.56
2023-01-05T03:43:43.636Z,70.40
2023-01-05T03:46:16.973Z,70.24
2023-01-05T03:48:43.885Z,70.56
2023-01-05T03:51:10.818Z,70.35
2023-01-05T03:53:37.575Z,70.36
2023-01-05T03:56:04.718Z,70.36
2023-01-05T03:58:31.467Z,70.10
2023-01-05T04:00:58.200Z,70.12
2023-01-05T04:03:29.568Z,70.13
2023-01-05T04:05:58.615Z,70.20
2023-01-05T04:08:25.412Z,70.16
2023-01-05T04:10:53.483Z,70.05
2023-01-05T04:13:20.675Z,69.92
2023-01-05T04:15:47.872Z,69.75
2023-01-05T04:18:14.889Z,69.75
2023-01-05T04:20:41.874Z,69.81
2023-01-05T04:23:08.651Z,69.65
2023-01-05T04:25:35.432Z,69.76
2023-01-05T04:28:02.232Z,69.82
2023-01-05T04:30:29.018Z,69.92
2023-01-05T04:32:55.828Z,69.63
2023-01-05T04:35:22.656Z,69.68
2023-01-05T04:37:49.430Z,69.73
2023-01-05T04:40:16.302Z,69.69
2023-01-05T04:42:43.079Z,69.57
2023-01-05T04:45:10.763Z,69.77
2023-01-05T04:47:37.531Z,69.91
2023-01-05T04:50:04.890Z,69.84
2023-01-05T04:52:31.683Z,69.91
2023-01-05T04:54:58.467Z,69.91
2023-01-05T04:57:25.296Z,69.90
2023-01-05T04:59:52.088Z,70.03
2023-01-05T05:02:19.039Z,69.89
2023-01-05T05:04:45.890Z,69.97
2023-01-05T05:07:12.664Z,70.01
2023-01-05T05:09:39.435Z,70.21
2023-01-05T05:12:06.505Z,69.87
2023-01-05T05:14:33.288Z,69.80
2023-01-05T05:17:00.191Z,70.04
2023-01-05T05:19:27.023Z,69.77
2023-01-05T05:21:53.824Z,69.54
2023-01-05T05:24:20.603Z,69.52
2023-01-05T05:26:47.403Z,69.61
2023-01-05T05:29:14.154Z,69.61
2023-01-05T05:31:40.984Z,69.65
2023-01-05T05:34:07.813Z,69.58
2023-01-05T05:36:36.095Z,69.56
2023-01-05T05:39:02.840Z,69.55
2023-01-05T05:41:29.642Z,69.45
2023-01-05T05:44:00.747Z,69.55
2023-01-05T05:46:28.253Z,69.33
2023-01-05T05:48:56.165Z,69.39
2023-01-05T05:51:23.794Z,69.38
2023-01-05T05:53:51.241Z,69.20
2023-01-05T05:56:18.702Z,69.19
2023-01-05T05:58:45.590Z,69.12
2023-01-05T06:01:12.801Z,69.08
2023-01-05T06:03:39.722Z,68.97
2023-01-05T06:06:07.021Z,69.11
2023-01-05T06:08:33.899Z,69.06
2023-01-05T06:11:00.749Z,68.96
2023-01-05T06:13:27.794Z,69.05
2023-01-05T06:15:54.893Z,68.98
2023-01-05T06:18:22.256Z,69.01
2023-01-05T06:20:49.040Z,68.90
2023-01-05T06:23:15.814Z,68.96
2023-01-05T06:25:43.286Z,68.83
2023-01-05T06:28:10.113Z,68.84
2023-01-05T06:30:36.866Z,68.92
2023-01-05T06:33:03.898Z,68.85
2023-01-05T06:35:30.718Z,68.90
2023-01-05T06:37:57.483Z,68.50
2023-01-05T06:40:24.235Z,68.80
2023-01-05T06:42:51.004Z,68.76
2023-01-05T06:45:17.858Z,68.70
2023-01-05T06:47:45.016Z,68.55
2023-01-05T06:50:11.902Z,68.69
2023-01-05T06:52:40.148Z,68.19
2023-01-05T06:55:09.884Z,68.56
2023-01-05T06:57:37.164Z,68.57
2023-01-05T07:00:10.934Z,68.62
2023-01-05T07:02:38.179Z,68.65
2023-01-05T07:05:05.635Z,68.70
2023-01-05T07:07:32.709Z,68.77
2023-01-05T07:09:59.749Z,68.83
2023-01-05T07:12:26.692Z,68.82
2023-01-05T07:14:57.464Z,68.88
2023-01-05T07:17:25.258Z,69.02
2023-01-05T07:19:52.025Z,68.67
2023-01-05T07:22:18.780Z,68.80
2023-01-05T07:24:46.166Z,68.60
2023-01-05T07:27:12.943Z,69.01
2023-01-05T07:29:39.713Z,68.90
2023-01-05T07:32:06.659Z,68.95
2023-01-05T07:34:33.470Z,69.00
2023-01-05T07:37:00.307Z,69.32
2023-01-05T07:39:27.189Z,69.01
2023-01-05T07:41:53.956Z,69.16
2023-01-05T07:44:20.748Z,69.15
2023-01-05T07:46:47.608Z,69.36
2023-01-05T07:49:15.243Z,69.25
2023-01-05T07:51:42.029Z,69.34
2023-01-05T07:54:08.816Z,69.47
2023-01-05T07:56:35.581Z,69.72
2023-01-05T07:59:02.396Z,69.58
2023-01-05T08:01:29.312Z,69.89
2023-01-05T08:03:56.225Z,69.89
2023-01-05T08:06:25.051Z,69.92
2023-01-05T08:08:51.823Z,70.20
2023-01-05T08:11:21.747Z,70.15
2023-01-05T08:14:00.883Z,69.98
2023-01-05T08:16:32.366Z,70.03
2023-01-05T08:18:59.917Z,70.11
2023-01-05T08:21:26.953Z,70.33
2023-01-05T08:23:54.120Z,70.38
2023-01-05T08:26:23.564Z,70.42
2023-01-05T08:28:51.461Z,70.28
2023-01-05T08:31:22.740Z,70.28
2023-01-05T08:33:50.173Z,70.28
2023-01-05T08:36:20.233Z,70.34
2023-01-05T08:38:56.049Z,70.28
2023-01-05T08:41:27.954Z,70.46
2023-01-05T08:43:57.656Z,70.47
2023-01-05T08:46:27.622Z,70.51
2023-01-05T08:48:57.422Z,70.70
2023-01-05T08:51:24.757Z,70.80
2023-01-05T08:53:51.709Z,70.66
2023-01-05T08:56:19.153Z,70.54
2023-01-05T08:58:46.045Z,70.65
2023-01-05T09:01:16.822Z,70.69
2023-01-05T09:03:44.498Z,70.84
2023-01-05T09:06:13.214Z,70.62
2023-01-05T09:08:42.193Z,70.79
2023-01-05T09:11:18.209Z,70.89
2023-01-05T09:13:54.610Z,70.78
2023-01-05T09:16:56.862Z,70.90
2023-01-05T09:19:13.541Z,70.91
2023-01-05T09:21:40.494Z,70.95
2023-01-05T09:24:08.851Z,70.98
2023-01-05T09:26:35.639Z,70.86
2023-01-05T09:29:02.439Z,70.96
2023-01-05T09:31:29.665Z,70.98
2023-01-05T09:34:00.371Z,70.88
2023-01-05T09:36:27.431Z,70.90
2023-01-05T09:38:58.364Z,70.98
2023-01-05T09:41:52.271Z,71.05
2023-01-05T09:44:46.440Z,70.98
2023-01-05T09:47:37.697Z,71.08
2023-01-05T09:50:17.923Z,70.98
2023-01-05T09:52:44.767Z,70.94
2023-01-05T09:55:20.960Z,71.04
2023-01-05T09:58:00.149Z,70.91
2023-01-05T10:00:28.383Z,70.93
2023-01-05T10:03:53.632Z,70.55
2023-01-05T10:06:15.000Z,69.44
2023-01-05T10:08:50.037Z,69.65
2023-01-05T10:12:16.878Z,69.66
2023-01-05T10:14:50.435Z,69.58
2023-01-05T10:20:43.642Z,69.83
2023-01-05T10:23:50.911Z,70.13
2023-01-05T10:27:14.399Z,70.54
2023-01-05T10:29:47.737Z,70.66
2023-01-05T10:32:50.502Z,70.74
2023-01-05T10:35:59.096Z,70.93
2023-01-05T10:38:50.172Z,70.94
2023-01-05T10:41:59.121Z,71.04
2023-01-05T10:44:56.579Z,71.37
2023-01-05T10:47:26.141Z,71.30
2023-01-05T10:49:53.582Z,71.35
2023-01-05T10:52:22.413Z,71.20
2023-01-05T10:54:58.551Z,70.84
2023-01-05T10:57:40.286Z,71.10
2023-01-05T11:00:19.806Z,70.70
2023-01-05T11:03:03.149Z,70.20
2023-01-05T11:05:45.249Z,70.90
2023-01-05T11:08:27.241Z,70.75
2023-01-05T11:10:58.981Z,70.82
2023-01-05T11:13:31.862Z,70.83
2023-01-05T11:16:16.117Z,70.85
2023-01-05T11:19:01.727Z,70.95
2023-01-05T11:21:45.937Z,70.90
2023-01-05T11:24:24.913Z,71.11
2023-01-05T11:27:01.717Z,71.17
2023-01-05T11:29:29.592Z,71.06
2023-01-05T11:32:10.942Z,70.91
2023-01-05T11:34:47.129Z,70.98
2023-01-05T11:37:28.596Z,70.92
2023-01-05T11:40:00.953Z,71.11
2023-01-05T11:42:30.523Z,71.11
2023-01-05T11:45:17.606Z,70.88
2023-01-05T11:48:04.976Z,70.75
2023-01-05T11:50:42.898Z,70.65
2023-01-05T11:53:33.734Z,70.85
2023-01-05T11:56:22.578Z,70.68
2023-01-05T11:58:55.012Z,70.86
2023-01-05T12:01:44.514Z,70.83
2023-01-05T12:04:48.154Z,70.72
2023-01-05T12:07:38.426Z,70.54
2023-01-05T12:10:29.484Z,70.90
2023-01-05T12:13:30.275Z,70.88
2023-01-05T12:16:38.889Z,70.84
2023-01-05T12:19:18.546Z,70.73
2023-01-05T12:21:51.401Z,70.83
2023-01-05T12:24:42.667Z,70.79
2023-01-05T12:27:32.830Z,70.73
2023-01-05T12:37:00.399Z,70.98
2023-01-05T12:40:11.246Z,71.20
2023-01-05T12:42:58.572Z,71.07
2023-01-05T12:45:57.428Z,70.92
2023-01-05T12:48:32.998Z,70.88
2023-01-05T12:51:26.507Z,70.74
2023-01-05T12:54:46.518Z,70.37
2023-01-05T12:57:38.708Z,70.85
2023-01-05T13:00:14.998Z,70.64
2023-01-05T13:02:49.512Z,70.51
2023-01-05T13:05:51.038Z,70.33
2023-01-05T13:08:24.786Z,70.40
2023-01-05T13:11:06.845Z,70.05
2023-01-05T13:13:40.313Z,70.15
2023-01-05T13:16:16.510Z,70.25
2023-01-05T13:18:54.038Z,70.22
2023-01-05T13:21:23.051Z,70.17
2023-01-05T13:23:59.903Z,70.07
2023-01-05T13:26:26.724Z,69.96
2023-01-05T13:29:02.691Z,69.95
2023-01-05T13:32:04.810Z,69.91
2023-01-05T13:35:15.196Z,69.89
2023-01-05T13:38:23.737Z,69.80
2023-01-05T13:41:24.405Z,69.98
2023-01-05T13:44:11.158Z,69.76
2023-01-05T13:47:13.033Z,69.84
2023-01-05T13:50:23.039Z,69.74
2023-01-05T13:53:06.756Z,69.88
2023-01-05T13:55:45.442Z,70.02
2023-01-05T13:58:39.692Z,69.99
2023-01-05T14:01:12.336Z,69.95
2023-01-05T14:03:46.643Z,70.06
2023-01-05T14:06:27.510Z,69.91
2023-01-05T14:11:36.900Z,70.25
2023-01-05T14:14:31.307Z,70.21
2023-01-05T14:16:58.385Z,70.29
2023-01-05T14:19:50.302Z,70.25
2023-01-05T14:22:33.546Z,70.32
2023-01-05T14:25:38.632Z,70.39
2023-01-05T14:28:43.326Z,70.28
2023-01-05T14:31:18.912Z,70.44
2023-01-05T14:33:52.223Z,70.49
2023-01-05T14:36:33.303Z,70.51
2023-01-05T14:39:05.018Z,70.50
2023-01-05T14:41:31.957Z,70.66
2023-01-05T14:44:17.452Z,70.67
2023-01-05T14:46:55.622Z,70.48
2023-01-05T14:49:43.652Z,70.64
2023-01-05T14:52:22.058Z,70.53
2023-01-05T14:54:52.951Z,70.67
2023-01-05T14:57:27.259Z,70.80
2023-01-05T15:00:10.928Z,70.50
2023-01-05T15:03:12.383Z,70.81
2023-01-05T15:06:28.364Z,70.81
2023-01-05T15:09:01.087Z,70.45
2023-01-05T15:11:36.707Z,70.79
2023-01-05T15:14:37.417Z,70.84
2023-01-05T15:17:29.368Z,70.73
2023-01-05T15:20:17.704Z,70.91
2023-01-05T15:23:36.613Z,71.00
2023-01-05T15:26:28.094Z,70.99
2023-01-05T15:29:42.187Z,70.87
2023-01-05T15:32:22.013Z,70.89
2023-01-05T15:35:08.211Z,70.81
2023-01-05T15:37:38.894Z,70.84
2023-01-05T15:40:31.575Z,70.67
2023-01-05T15:43:02.772Z,70.72
2023-01-05T15:45:36.143Z,70.64
2023-01-05T15:48:09.651Z,70.51
2023-01-05T15:50:46.595Z,70.44
2023-01-05T15:53:30.188Z,70.54
2023-01-05T15:55:58.710Z,70.58
2023-01-05T15:58:29.889Z,70.67
2023-01-05T16:01:08.524Z,70.55
2023-01-05T16:03:37.978Z,70.30
2023-01-05T16:06:21.420Z,70.34
2023-01-05T16:08:51.618Z,70.50
2023-01-05T16:11:26.678Z,70.25
2023-01-05T16:14:38.660Z,70.33
2023-01-05T16:17:15.791Z,70.41
2023-01-05T16:20:09.494Z,70.43
2023-01-05T16:22:45.580Z,70.56
2023-01-05T16:25:22.072Z,70.56
2023-01-05T16:27:58.497Z,70.44
2023-01-05T16:30:35.897Z,70.55
2023-01-05T16:33:12.033Z,70.45
2023-01-05T16:35:55.165Z,70.52
2023-01-05T16:38:30.369Z,70.43
2023-01-05T16:41:09.886Z,70.69
2023-01-05T16:43:39.715Z,70.57
2023-01-05T16:46:39.017Z,70.59
2023-01-05T16:49:49.902Z,70.47
2023-01-05T16:52:27.234Z,70.56
2023-01-05T16:55:27.678Z,70.50
2023-01-05T16:57:55.606Z,70.67
2023-01-05T17:00:28.307Z,70.50
2023-01-05T17:03:00.705Z,70.61
2023-01-05T17:05:32.085Z,70.51
2023-01-05T17:08:20.556Z,70.44
2023-01-05T17:10:47.837Z,70.28
2023-01-05T17:13:35.899Z,70.45
2023-01-05T17:16:03.957Z,70.57
2023-01-05T17:18:31.251Z,70.62
2023-01-05T17:20:59.597Z,70.33
2023-01-05T17:23:33.707Z,70.38
2023-01-05T17:26:06.466Z,70.46
2023-01-05T17:28:33.635Z,70.56
2023-01-05T17:31:00.619Z,70.37
2023-01-05T17:33:27.565Z,70.50
2023-01-05T17:35:55.153Z,70.55
2023-01-05T17:38:21.974Z,70.46
2023-01-05T17:40:49.225Z,70.65
2023-01-05T17:43:16.256Z,70.40
2023-01-05T17:45:44.303Z,70.64
2023-01-05T17:50:43.744Z,70.62
2023-01-05T17:53:10.842Z,70.37
2023-01-05T17:55:39.449Z,70.24
2023-01-05T17:58:06.309Z,70.51
2023-01-05T18:00:39.501Z,70.55
2023-01-05T18:03:06.289Z,70.50
2023-01-05T18:05:33.084Z,70.57
2023-01-05T18:08:00.196Z,70.54
2023-01-05T18:10:29.120Z,70.68
2023-01-05T18:12:56.654Z,70.60
2023-01-05T18:15:23.628Z,70.94
2023-01-05T18:17:50.432Z,70.45
2023-01-05T18:20:20.028Z,70.80
2023-01-05T18:22:48.387Z,70.81
2023-01-05T18:25:15.408Z,70.71
2023-01-05T18:27:42.228Z,70.74
2023-01-05T18:30:11.166Z,70.81
2023-01-05T18:32:39.021Z,70.86
2023-01-05T18:35:09.886Z,70.80
2023-01-05T18:37:39.051Z,70.73
2023-01-05T18:40:06.914Z,70.76
2023-01-05T18:42:33.685Z,70.58
2023-01-05T18:45:08.946Z,70.74
2023-01-05T18:47:46.512Z,70.73
2023-01-05T18:50:13.435Z,70.88
2023-01-05T18:52:40.201Z,70.93
2023-01-05T18:55:07.287Z,70.68
2023-01-05T18:57:34.272Z,70.91
2023-01-05T19:00:01.151Z,70.86
2023-01-05T19:02:28.425Z,70.80
2023-01-05T19:04:55.785Z,70.72
2023-01-05T19:07:22.661Z,70.60
2023-01-05T19:09:49.455Z,70.63
2023-01-05T19:12:16.387Z,70.64
2023-01-05T19:14:43.158Z,70.79
2023-01-05T19:17:09.977Z,70.62
2023-01-05T19:19:36.758Z,70.81
2023-01-05T19:22:03.560Z,70.96
2023-01-05T19:24:31.758Z,70.84
2023-01-05T19:26:58.763Z,70.52
2023-01-05T19:29:25.612Z,70.63
2023-01-05T19:31:52.412Z,70.65
2023-01-05T19:34:19.605Z,70.62
2023-01-05T19:36:49.085Z,70.55
2023-01-05T19:39:19.483Z,70.93
2023-01-05T19:41:48.329Z,70.65
2023-01-05T19:44:21.109Z,70.52
2023-01-05T19:46:54.651Z,70.82
2023-01-05T19:49:25.703Z,70.80
2023-01-05T19:51:53.160Z,70.68
2023-01-05T19:54:22.328Z,70.67
2023-01-05T19:56:49.153Z,70.80
2023-01-05T19:59:26.390Z,70.66
2023-01-05T20:01:54.793Z,70.53
2023-01-05T20:04:21.638Z,70.89
2023-01-05T20:06:48.429Z,70.56
2023-01-05T20:09:18.796Z,70.68
2023-01-05T20:11:48.797Z,70.67
2023-01-05T20:14:30.789Z,70.87
2023-01-05T20:17:05.708Z,70.77
2023-01-05T20:19:35.236Z,70.68
2023-01-05T20:22:05.720Z,70.72
2023-01-05T20:24:36.069Z,70.65
2023-01-05T20:27:08.407Z,70.73
2023-01-05T20:29:35.889Z,70.64
2023-01-05T20:32:08.206Z,70.67
2023-01-05T20:34:38.371Z,70.85
2023-01-05T20:37:08.010Z,70.83
2023-01-05T20:39:36.023Z,70.77
2023-01-05T20:42:05.882Z,70.86
2023-01-05T20:44:37.045Z,70.82
2023-01-05T20:47:06.441Z,70.72
2023-01-05T20:49:36.669Z,70.72
2023-01-05T20:52:04.969Z,70.93
2023-01-05T20:54:31.778Z,70.85
2023-01-05T20:56:58.575Z,71.01
2023-01-05T20:59:30.070Z,70.86
2023-01-05T21:01:58.876Z,71.16
2023-01-05T21:04:27.771Z,70.83
2023-01-05T21:06:54.711Z,70.80
2023-01-05T21:09:25.430Z,71.04
2023-01-05T21:11:52.206Z,70.99
2023-01-05T21:14:19.905Z,70.70
2023-01-05T21:16:51.646Z,70.69
2023-01-05T21:19:22.924Z,70.76
2023-01-05T21:21:55.674Z,70.72
2023-01-05T21:24:23.334Z,70.80
2023-01-05T21:26:50.194Z,70.95
2023-01-05T21:29:20.131Z,70.82
2023-01-05T21:31:46.979Z,70.76
2023-01-05T21:34:14.061Z,70.79
2023-01-05T21:36:45.096Z,70.67
2023-01-05T21:39:18.871Z,70.52
2023-01-05T21:42:05.886Z,70.67
2023-01-05T21:44:33.394Z,70.50
2023-01-05T21:47:00.287Z,70.47
2023-01-05T21:49:27.321Z,70.44
2023-01-05T21:52:12.836Z,70.42
2023-01-05T21:54:57.925Z,70.71
2023-01-05T21:57:24.967Z,70.62
2023-01-05T21:59:51.827Z,70.66
2023-01-05T22:02:18.744Z,70.48
2023-01-05T22:04:45.925Z,70.78
2023-01-05T22:07:12.805Z,70.46
2023-01-05T22:09:39.675Z,70.68
2023-01-05T22:12:08.649Z,70.75
2023-01-05T22:14:39.696Z,70.58
2023-01-05T22:17:08.452Z,70.62
2023-01-05T22:19:35.698Z,70.54
2023-01-05T22:22:02.508Z,70.90
2023-01-05T22:24:29.322Z,70.84
2023-01-05T22:26:56.384Z,70.93
2023-01-05T22:29:23.553Z,70.65
2023-01-05T22:31:50.737Z,70.72
2023-01-05T22:34:17.787Z,70.76
2023-01-05T22:36:44.662Z,70.75
2023-01-05T22:39:12.241Z,70.67
2023-01-05T22:41:39.145Z,70.75
2023-01-05T22:44:06.680Z,70.95
2023-01-05T22:46:34.029Z,70.92
2023-01-05T22:49:00.847Z,70.80
2023-01-05T22:51:31.513Z,70.77
2023-01-05T22:53:59.325Z,70.67
2023-01-05T22:56:31.685Z,70.79
2023-01-05T22:58:59.054Z,70.87
2023-01-05T23:01:37.007Z,70.95
2023-01-05T23:04:06.167Z,70.99
2023-01-05T23:06:33.508Z,70.84
2023-01-05T23:09:00.847Z,70.86
2023-01-05T23:11:34.612Z,70.97
2023-01-05T23:14:04.385Z,70.95
2023-01-05T23:16:32.581Z,71.06
2023-01-05T23:18:59.409Z,70.88
2023-01-05T23:21:26.869Z,70.91
2023-01-05T23:23:56.320Z,70.83
2023-01-05T23:26:25.328Z,70.96
2023-01-05T23:28:52.381Z,71.00
2023-01-05T23:31:25.240Z,71.08
2023-01-05T23:33:54.736Z,71.04
2023-01-05T23:36:23.826Z,71.08
2023-01-05T23:38:50.763Z,71.18
2023-01-05T23:41:17.938Z,71.23
2023-01-05T23:43:46.069Z,71.53
2023-01-05T23:46:16.903Z,71.27
2023-01-05T23:48:44.233Z,71.24
2023-01-05T23:51:16.850Z,71.40
2023-01-05T23:53:47.605Z,71.35
2023-01-05T23:56:19.186Z,71.31
2023-01-05T23:58:46.289Z,71.40
